createdAt,value
2023-04-27T00:01:12.521Z,4.00
2023-04-27T00:03:40.858Z,3.96
2023-04-27T00:06:09.244Z,3.92
2023-04-27T00:08:36.237Z,3.89
2023-04-27T00:11:03.134Z,3.86
2023-04-27T00:13:29.957Z,3.84
2023-04-27T00:15:56.876Z,3.81
2023-04-27T00:18:23.554Z,3.78
2023-04-27T00:20:50.449Z,3.75
2023-04-27T00:23:17.369Z,3.70
2023-04-27T00:25:44.160Z,3.67
2023-04-27T00:28:10.890Z,3.62
2023-04-27T00:30:37.738Z,3.59
2023-04-27T00:33:05.394Z,3.55
2023-04-27T00:35:33.072Z,3.55
2023-04-27T00:38:00.024Z,3.56
2023-04-27T00:40:26.716Z,3.57
2023-04-27T00:42:53.377Z,3.57
2023-04-27T00:45:20.194Z,3.56
2023-04-27T00:47:47.007Z,3.56
2023-04-27T00:50:14.075Z,3.53
2023-04-27T00:52:41.346Z,3.52
2023-04-27T00:55:09.122Z,3.52
2023-04-27T00:57:35.831Z,3.51
2023-04-27T01:00:06.245Z,3.50
2023-04-27T01:02:34.405Z,3.46
2023-04-27T01:05:02.483Z,3.42
2023-04-27T01:07:29.376Z,3.36
2023-04-27T01:09:56.113Z,3.32
2023-04-27T01:12:22.793Z,3.28
2023-04-27T01:14:49.559Z,3.24
2023-04-27T01:17:17.729Z,3.19
2023-04-27T01:19:44.572Z,3.15
2023-04-27T01:22:11.504Z,3.14
2023-04-27T01:24:38.243Z,3.13
2023-04-27T01:27:05.106Z,3.12
2023-04-27T01:29:32.164Z,3.10
2023-04-27T01:31:59.028Z,3.08
2023-04-27T01:34:25.766Z,3.05
2023-04-27T01:36:52.496Z,3.04
2023-04-27T01:39:19.213Z,3.03
2023-04-27T01:41:45.914Z,3.04
2023-04-27T01:44:12.673Z,3.06
2023-04-27T01:46:39.453Z,3.05
2023-04-27T01:49:06.699Z,3.02
2023-04-27T01:51:33.440Z,3.01
2023-04-27T01:54:00.202Z,2.95
2023-04-27T01:56:26.894Z,2.90
2023-04-27T01:58:53.657Z,2.87
2023-04-27T02:01:20.477Z,2.86
2023-04-27T02:03:47.360Z,2.87
2023-04-27T02:06:14.424Z,2.87
2023-04-27T02:08:41.130Z,2.86
2023-04-27T02:11:08.317Z,2.83
2023-04-27T02:13:35.290Z,2.80
2023-04-27T02:16:04.254Z,2.79
2023-04-27T02:18:35.756Z,2.77
2023-04-27T02:21:08.790Z,2.77
2023-04-27T02:23:36.298Z,2.78
2023-04-27T02:26:04.544Z,2.76
2023-04-27T02:28:31.790Z,2.72
2023-04-27T02:30:58.970Z,2.71
2023-04-27T02:33:25.769Z,2.70
2023-04-27T02:35:52.626Z,2.70
2023-04-27T02:38:19.449Z,2.69
2023-04-27T02:40:46.126Z,2.70
2023-04-27T02:43:12.798Z,2.71
2023-04-27T02:45:39.516Z,2.70
2023-04-27T02:48:06.497Z,2.68
2023-04-27T02:50:33.179Z,2.65
2023-04-27T02:52:59.914Z,2.64
2023-04-27T02:55:27.041Z,2.65
2023-04-27T02:57:53.786Z,2.66
2023-04-27T03:00:20.623Z,2.66
2023-04-27T03:02:47.405Z,2.66
2023-04-27T03:05:14.136Z,2.65
2023-04-27T03:07:41.485Z,2.62
2023-04-27T03:10:08.759Z,2.59
2023-04-27T03:12:35.500Z,2.57
2023-04-27T03:15:02.693Z,2.57
2023-04-27T03:17:29.377Z,2.57
2023-04-27T03:19:56.284Z,2.57
2023-04-27T03:22:23.226Z,2.58
2023-04-27T03:24:50.171Z,2.57
2023-04-27T03:27:16.955Z,2.56
2023-04-27T03:29:43.600Z,2.54
2023-04-27T03:32:10.468Z,2.52
2023-04-27T03:34:37.353Z,2.53
2023-04-27T03:37:04.138Z,2.54
2023-04-27T03:39:30.827Z,2.55
2023-04-27T03:41:57.497Z,2.54
2023-04-27T03:44:24.250Z,2.53
2023-04-27T03:46:50.908Z,2.52
2023-04-27T03:49:17.646Z,2.51
2023-04-27T03:51:44.971Z,2.48
2023-04-27T03:54:11.802Z,2.45
2023-04-27T03:56:38.576Z,2.43
2023-04-27T03:59:05.308Z,2.41
2023-04-27T04:01:33.428Z,2.41
2023-04-27T04:04:00.340Z,2.41
2023-04-27T04:06:27.819Z,2.41
2023-04-27T04:08:55.402Z,2.41
2023-04-27T04:11:22.149Z,2.40
2023-04-27T04:13:49.255Z,2.38
2023-04-27T04:16:16.041Z,2.40
2023-04-27T04:18:42.905Z,2.43
2023-04-27T04:21:10.726Z,2.47
2023-04-27T04:23:40.471Z,2.49
2023-04-27T04:26:08.242Z,2.50
2023-04-27T04:28:35.258Z,2.53
2023-04-27T04:31:02.816Z,2.57
2023-04-27T04:33:30.642Z,2.62
2023-04-27T04:35:58.254Z,2.70
2023-04-27T04:38:24.984Z,2.77
2023-04-27T04:40:52.379Z,2.85
2023-04-27T04:43:19.167Z,2.92
2023-04-27T04:45:46.331Z,2.99
2023-04-27T04:48:17.094Z,3.05
2023-04-27T04:50:43.866Z,3.11
2023-04-27T04:53:10.541Z,3.19
2023-04-27T04:55:37.231Z,3.31
2023-04-27T04:58:03.972Z,3.42
2023-04-27T05:00:30.749Z,3.52
2023-04-27T05:02:58.090Z,3.60
2023-04-27T05:05:25.519Z,3.67
2023-04-27T05:07:52.155Z,3.73
2023-04-27T05:10:18.790Z,3.78
2023-04-27T05:12:45.623Z,3.86
2023-04-27T05:15:12.352Z,3.95
2023-04-27T05:17:39.058Z,4.06
2023-04-27T05:20:07.287Z,4.21
2023-04-27T05:22:33.955Z,4.34
2023-04-27T05:25:00.781Z,4.48
2023-04-27T05:27:27.641Z,4.68
2023-04-27T05:29:54.280Z,4.87
2023-04-27T05:32:20.918Z,4.99
2023-04-27T05:34:49.483Z,5.07
2023-04-27T05:37:16.433Z,5.10
2023-04-27T05:39:43.083Z,5.18
2023-04-27T05:42:09.958Z,5.36
2023-04-27T05:44:36.674Z,5.57
2023-04-27T05:47:03.452Z,5.74
2023-04-27T05:49:30.472Z,5.86
2023-04-27T05:51:58.531Z,6.13
2023-04-27T05:54:26.955Z,6.28
2023-04-27T05:56:53.869Z,6.40
2023-04-27T05:59:21.421Z,6.39
2023-04-27T06:01:48.172Z,6.42
2023-04-27T06:04:15.309Z,6.50
2023-04-27T06:06:42.415Z,6.56
2023-04-27T06:09:09.141Z,6.54
2023-04-27T06:11:36.274Z,6.55
2023-04-27T06:14:03.059Z,6.58
2023-04-27T06:16:30.034Z,6.59
2023-04-27T06:18:56.992Z,6.62
2023-04-27T06:21:23.813Z,6.65
2023-04-27T06:23:50.781Z,6.65
2023-04-27T06:26:17.438Z,6.69
2023-04-27T06:28:44.263Z,6.71
2023-04-27T06:31:11.026Z,6.69
2023-04-27T06:33:38.225Z,6.69
2023-04-27T06:36:05.777Z,6.70
2023-04-27T06:38:32.438Z,6.70
2023-04-27T06:40:59.198Z,6.73
2023-04-27T06:43:26.198Z,6.79
2023-04-27T06:45:52.943Z,6.85
2023-04-27T06:48:19.745Z,6.93
2023-04-27T06:50:47.622Z,7.06
2023-04-27T06:53:16.333Z,7.08
2023-04-27T06:55:45.576Z,7.09
2023-04-27T06:58:16.493Z,7.10
2023-04-27T07:00:43.310Z,7.13
2023-04-27T07:03:10.372Z,7.15
2023-04-27T07:05:37.420Z,7.11
2023-04-27T07:08:07.242Z,7.10
2023-04-27T07:10:35.795Z,7.12
2023-04-27T07:13:02.649Z,7.13
2023-04-27T07:15:31.002Z,7.16
2023-04-27T07:17:57.698Z,7.24
2023-04-27T07:20:24.803Z,7.32
2023-04-27T07:22:51.508Z,7.40
2023-04-27T07:25:19.170Z,7.47
2023-04-27T07:27:46.404Z,7.48
2023-04-27T07:30:13.907Z,7.45
2023-04-27T07:32:41.382Z,7.45
2023-04-27T07:35:09.221Z,7.47
2023-04-27T07:37:39.844Z,7.50
2023-04-27T07:40:13.899Z,7.57
2023-04-27T07:42:41.596Z,7.57
2023-04-27T07:45:09.170Z,7.55
2023-04-27T07:47:36.647Z,7.55
2023-04-27T07:50:04.166Z,7.60
2023-04-27T07:52:30.948Z,7.70
2023-04-27T07:54:57.733Z,7.79
2023-04-27T07:57:24.716Z,7.87
2023-04-27T07:59:51.461Z,7.94
2023-04-27T08:02:20.017Z,7.97
2023-04-27T08:04:49.449Z,7.94
2023-04-27T08:07:17.496Z,7.96
2023-04-27T08:09:44.574Z,8.07
2023-04-27T08:12:11.410Z,8.18
2023-04-27T08:14:38.103Z,8.21
2023-04-27T08:17:05.025Z,8.19
2023-04-27T08:19:31.872Z,8.16
2023-04-27T08:21:58.551Z,8.13
2023-04-27T08:24:25.429Z,8.09
2023-04-27T08:26:52.243Z,8.09
2023-04-27T08:29:27.790Z,8.08
2023-04-27T08:31:59.334Z,8.03
2023-04-27T08:34:27.219Z,8.00
2023-04-27T08:36:54.371Z,8.03
2023-04-27T08:39:21.158Z,8.09
2023-04-27T08:41:47.892Z,8.17
2023-04-27T08:44:14.776Z,8.16
2023-04-27T08:46:41.940Z,8.13
2023-04-27T08:49:09.341Z,8.09
2023-04-27T08:51:36.181Z,8.03
2023-04-27T08:54:03.047Z,8.04
2023-04-27T08:56:30.804Z,8.02
2023-04-27T08:59:01.118Z,8.00
2023-04-27T09:01:28.126Z,7.99
2023-04-27T09:04:00.241Z,7.98
2023-04-27T09:06:32.201Z,7.95
2023-04-27T09:09:00.323Z,7.91
2023-04-27T09:11:33.361Z,7.96
2023-04-27T09:14:02.778Z,8.02
2023-04-27T09:16:30.906Z,8.05
2023-04-27T09:18:59.334Z,8.06
2023-04-27T09:21:33.286Z,8.11
2023-04-27T09:24:10.630Z,8.20
2023-04-27T09:26:37.413Z,8.28
2023-04-27T09:29:04.277Z,8.40
2023-04-27T09:31:32.504Z,8.51
2023-04-27T09:33:59.744Z,8.62
2023-04-27T09:36:26.820Z,8.70
2023-04-27T09:38:53.579Z,8.74
2023-04-27T09:41:21.343Z,8.81
2023-04-27T09:43:48.297Z,8.90
2023-04-27T09:46:15.528Z,8.97
2023-04-27T09:48:42.696Z,9.06
2023-04-27T09:51:09.454Z,9.13
2023-04-27T09:53:56.282Z,9.16
2023-04-27T09:56:50.966Z,9.13
2023-04-27T09:59:26.790Z,9.15
2023-04-27T10:02:00.075Z,9.15
2023-04-27T10:04:49.478Z,9.17
2023-04-27T10:07:17.174Z,9.20
2023-04-27T10:09:49.285Z,9.23
2023-04-27T10:12:35.691Z,9.22
2023-04-27T10:15:17.185Z,9.20
2023-04-27T10:17:50.253Z,9.16
2023-04-27T10:20:17.161Z,9.14
2023-04-27T10:22:51.973Z,9.14
2023-04-27T10:25:21.520Z,9.12
2023-04-27T10:27:51.342Z,9.08
2023-04-27T10:30:19.955Z,9.08
2023-04-27T10:32:57.971Z,9.04
2023-04-27T10:35:36.783Z,8.99
2023-04-27T10:38:18.478Z,8.97
2023-04-27T10:40:57.336Z,8.94
2023-04-27T10:43:29.240Z,8.88
2023-04-27T10:46:11.316Z,8.90
2023-04-27T10:48:42.890Z,8.97
2023-04-27T10:51:10.315Z,9.02
2023-04-27T10:53:37.414Z,9.06
2023-04-27T10:56:07.582Z,9.08
2023-04-27T10:58:48.293Z,9.06
2023-04-27T11:01:26.273Z,9.00
2023-04-27T11:04:00.782Z,8.95
2023-04-27T11:06:29.843Z,8.90
2023-04-27T11:08:56.534Z,8.83
2023-04-27T11:11:23.822Z,8.76
2023-04-27T11:13:55.171Z,8.69
2023-04-27T11:16:22.597Z,8.60
2023-04-27T11:18:49.689Z,8.52
2023-04-27T11:21:19.980Z,8.46
2023-04-27T11:23:47.288Z,8.48
2023-04-27T11:26:22.076Z,8.56
2023-04-27T11:29:06.060Z,8.67
2023-04-27T11:31:48.460Z,8.79
2023-04-27T11:34:16.757Z,8.85
2023-04-27T11:36:44.040Z,8.89
2023-04-27T11:39:22.279Z,8.92
2023-04-27T11:41:49.104Z,8.94
2023-04-27T11:44:15.841Z,8.95
2023-04-27T11:46:46.935Z,8.94
2023-04-27T11:49:14.868Z,8.93
2023-04-27T11:51:44.394Z,8.93
2023-04-27T11:54:12.216Z,8.90
2023-04-27T11:56:42.140Z,8.87
2023-04-27T11:59:27.070Z,8.84
2023-04-27T12:01:54.179Z,8.81
2023-04-27T12:04:21.164Z,8.86
2023-04-27T12:06:48.334Z,8.96
2023-04-27T12:09:16.867Z,9.01
2023-04-27T12:11:44.087Z,9.01
2023-04-27T12:14:10.805Z,8.99
2023-04-27T12:16:37.829Z,8.94
2023-04-27T12:19:04.831Z,8.91
2023-04-27T12:21:31.705Z,8.94
2023-04-27T12:23:58.578Z,9.00
2023-04-27T12:26:25.970Z,9.10
2023-04-27T12:28:53.214Z,9.20
2023-04-27T12:31:26.055Z,9.30
2023-04-27T12:33:54.396Z,9.43
2023-04-27T12:36:21.201Z,9.56
2023-04-27T12:38:47.873Z,9.70
2023-04-27T12:41:14.550Z,9.87
2023-04-27T12:43:43.356Z,10.04
2023-04-27T12:46:11.024Z,10.22
2023-04-27T12:48:37.962Z,10.32
2023-04-27T12:51:06.282Z,10.31
2023-04-27T12:53:32.960Z,10.27
2023-04-27T12:56:01.413Z,10.24
2023-04-27T12:58:28.249Z,10.24
2023-04-27T13:00:57.241Z,10.15
2023-04-27T13:03:24.553Z,9.90
2023-04-27T13:05:51.592Z,9.62
2023-04-27T13:08:18.408Z,9.36
2023-04-27T13:10:45.133Z,9.15
2023-04-27T13:13:11.978Z,8.89
2023-04-27T13:15:38.810Z,8.62
2023-04-27T13:18:06.045Z,8.42
2023-04-27T13:20:32.939Z,8.35
2023-04-27T13:22:59.654Z,8.36
2023-04-27T13:25:26.543Z,8.49
2023-04-27T13:28:41.761Z,8.62
2023-04-27T13:31:09.388Z,8.77
2023-04-27T13:33:43.923Z,8.86
2023-04-27T13:36:12.232Z,8.99
2023-04-27T13:38:39.310Z,9.14
2023-04-27T13:41:06.327Z,9.28
2023-04-27T13:43:33.168Z,9.40
2023-04-27T13:46:01.382Z,9.51
2023-04-27T13:48:29.855Z,9.66
2023-04-27T13:50:57.350Z,9.84
2023-04-27T13:53:25.170Z,9.99
2023-04-27T13:55:53.511Z,10.15
2023-04-27T13:58:20.487Z,10.31
2023-04-27T14:00:47.897Z,10.44
2023-04-27T14:03:18.150Z,10.51
2023-04-27T14:05:47.675Z,10.49
2023-04-27T14:08:14.388Z,10.51
2023-04-27T14:10:41.168Z,10.55
2023-04-27T14:13:08.060Z,10.59
2023-04-27T14:15:37.465Z,10.61
2023-04-27T14:18:05.661Z,10.53
2023-04-27T14:20:34.092Z,10.51
2023-04-27T14:23:01.531Z,10.56
2023-04-27T14:25:32.298Z,10.57
2023-04-27T14:28:03.667Z,10.56
2023-04-27T14:30:34.392Z,10.40
2023-04-27T14:33:01.613Z,10.27
2023-04-27T14:35:28.436Z,10.25
2023-04-27T14:37:56.479Z,10.29
2023-04-27T14:40:23.309Z,10.36
2023-04-27T14:42:50.108Z,10.43
2023-04-27T14:45:18.269Z,10.54
2023-04-27T14:47:45.102Z,10.60
2023-04-27T14:50:12.455Z,10.66
2023-04-27T14:52:39.308Z,10.75
2023-04-27T14:55:06.738Z,10.80
2023-04-27T14:57:33.729Z,10.73
2023-04-27T15:00:00.623Z,10.49
2023-04-27T15:02:27.579Z,10.29
2023-04-27T15:04:54.524Z,10.10
2023-04-27T15:07:21.469Z,9.90
2023-04-27T15:09:48.315Z,9.75
2023-04-27T15:12:15.123Z,9.61
2023-04-27T15:14:41.824Z,9.52
2023-04-27T15:17:08.638Z,9.46
2023-04-27T15:19:35.569Z,9.40
2023-04-27T15:22:02.263Z,9.39
2023-04-27T15:24:29.206Z,9.33
2023-04-27T15:26:55.896Z,9.27
2023-04-27T15:29:23.134Z,9.23
2023-04-27T15:31:50.440Z,9.24
2023-04-27T15:34:17.273Z,9.29
2023-04-27T15:36:43.969Z,9.31
2023-04-27T15:39:10.823Z,9.36
2023-04-27T15:41:37.590Z,9.41
2023-04-27T15:44:05.036Z,9.45
2023-04-27T15:46:32.355Z,9.52
2023-04-27T15:48:59.111Z,9.61
2023-04-27T15:51:26.227Z,9.69
2023-04-27T15:53:53.050Z,9.76
2023-04-27T15:56:19.754Z,9.82
2023-04-27T15:58:46.404Z,9.88
2023-04-27T16:01:13.251Z,9.92
2023-04-27T16:03:40.412Z,9.97
2023-04-27T16:06:07.544Z,10.01
2023-04-27T16:08:34.509Z,10.03
2023-04-27T16:11:01.422Z,10.04
2023-04-27T16:13:28.515Z,10.03
2023-04-27T16:15:55.546Z,10.00
2023-04-27T16:18:22.606Z,9.92
2023-04-27T16:20:49.349Z,9.86
2023-04-27T16:23:16.706Z,9.80
2023-04-27T16:25:43.443Z,9.74
2023-04-27T16:28:10.232Z,9.70
2023-04-27T16:30:38.175Z,9.67
2023-04-27T16:33:05.177Z,9.64
2023-04-27T16:35:33.509Z,9.62
2023-04-27T16:38:01.130Z,9.59
2023-04-27T16:40:27.910Z,9.55
2023-04-27T16:42:54.569Z,9.48
2023-04-27T16:45:21.288Z,9.41
2023-04-27T16:47:48.250Z,9.39
2023-04-27T16:50:15.254Z,9.36
2023-04-27T16:52:42.071Z,9.33
2023-04-27T16:55:09.072Z,9.30
2023-04-27T16:57:36.466Z,9.26
2023-04-27T17:00:05.844Z,9.24
2023-04-27T17:02:32.851Z,9.22
2023-04-27T17:05:00.992Z,9.18
2023-04-27T17:07:31.931Z,9.13
2023-04-27T17:09:59.062Z,9.10
2023-04-27T17:12:25.795Z,9.06
2023-04-27T17:14:52.493Z,9.01
2023-04-27T17:17:19.367Z,8.98
2023-04-27T17:19:46.297Z,8.94
2023-04-27T17:22:15.016Z,8.87
2023-04-27T17:24:41.925Z,8.81
2023-04-27T17:27:08.946Z,8.75
2023-04-27T17:29:36.800Z,8.69
2023-04-27T17:32:04.714Z,8.63
2023-04-27T17:34:31.639Z,8.58
2023-04-27T17:36:58.732Z,8.54
2023-04-27T17:39:25.754Z,8.49
2023-04-27T17:43:41.157Z,8.42
2023-04-27T17:46:09.134Z,8.27
2023-04-27T17:48:36.885Z,8.20
2023-04-27T17:51:32.801Z,8.12
2023-04-27T17:54:11.017Z,8.04
2023-04-27T17:56:42.465Z,8.00
2023-04-27T20:29:20.637Z,4.67
2023-04-27T20:31:53.894Z,4.61
2023-04-27T20:34:20.660Z,4.55
2023-04-27T20:36:53.040Z,4.49
2023-04-27T20:43:07.297Z,4.30
2023-04-27T20:46:01.506Z,4.19
2023-04-27T20:49:47.211Z,4.18
2023-04-27T20:52:14.386Z,4.13
2023-04-27T20:54:41.800Z,4.10
2023-04-27T20:57:13.176Z,4.06
2023-04-27T20:59:44.892Z,4.01
2023-04-27T21:02:11.927Z,3.95
2023-04-27T21:04:39.531Z,3.91
2023-04-27T21:07:06.469Z,3.86
2023-04-27T21:10:13.607Z,3.81
2023-04-27T21:12:43.781Z,3.73
2023-04-27T21:15:11.705Z,3.69
2023-04-27T21:17:50.235Z,3.64
2023-04-27T21:20:22.844Z,3.58
2023-04-27T21:22:52.260Z,3.53
2023-04-27T21:25:19.255Z,3.48
2023-04-27T21:27:46.621Z,3.43
2023-04-27T21:30:13.932Z,3.38
2023-04-27T21:32:40.988Z,3.33
2023-04-27T21:35:12.302Z,3.28
2023-04-27T21:37:40.312Z,3.25
2023-04-27T21:40:08.065Z,3.23
2023-04-27T21:42:35.761Z,3.22
2023-04-27T21:45:03.852Z,3.21
2023-04-27T21:47:31.213Z,3.19
2023-04-27T21:55:14.151Z,3.07
2023-04-27T21:58:51.338Z,3.04
2023-04-27T22:01:00.646Z,3.00
2023-04-27T22:03:28.606Z,2.96
2023-04-27T22:05:58.446Z,2.91
2023-04-27T22:08:25.794Z,2.88
2023-04-27T22:10:53.984Z,2.84
2023-04-27T22:13:22.702Z,2.80
2023-04-27T22:16:20.414Z,2.73
2023-04-27T22:18:54.310Z,2.71
2023-04-27T22:21:24.040Z,2.68
2023-04-27T22:23:50.891Z,2.70
2023-04-27T22:26:20.704Z,2.69
2023-04-27T22:28:47.905Z,2.67
2023-04-27T22:31:14.633Z,2.65
2023-04-27T22:33:41.362Z,2.62
2023-04-27T22:36:08.431Z,2.60
2023-04-27T22:38:35.791Z,2.56
2023-04-27T22:41:02.553Z,2.53
2023-04-27T22:43:29.554Z,2.49
2023-04-27T22:45:56.600Z,2.45
2023-04-27T22:48:51.892Z,2.41
2023-04-27T22:51:28.368Z,2.36
2023-04-27T22:58:41.516Z,2.32
2023-04-27T23:01:17.682Z,2.30
2023-04-27T23:03:45.800Z,2.32
2023-04-27T23:06:16.071Z,2.29
2023-04-27T23:08:45.379Z,2.29
2023-04-27T23:11:14.797Z,2.26
2023-04-27T23:13:41.555Z,2.23
2023-04-27T23:16:09.328Z,2.19
2023-04-27T23:18:38.791Z,2.15
2023-04-27T23:21:14.589Z,2.11
2023-04-27T23:23:41.494Z,2.09
2023-04-27T23:26:15.813Z,2.06
2023-04-27T23:28:46.074Z,2.06
2023-04-27T23:31:13.739Z,2.05
2023-04-27T23:33:40.907Z,2.05
2023-04-27T23:36:07.961Z,2.04
2023-04-27T23:38:34.696Z,2.01
2023-04-27T23:41:01.435Z,1.99
2023-04-27T23:43:28.242Z,1.97
2023-04-27T23:45:55.378Z,1.94
2023-04-27T23:48:22.198Z,1.91
2023-04-27T23:50:48.856Z,1.88
2023-04-27T23:53:15.556Z,1.85
2023-04-27T23:55:42.231Z,1.81
2023-04-27T23:58:08.978Z,1.79
